sensor_id;sensor_type;location;lat;lon;timestamp;P1;durP1;ratioP1;P2;durP2;ratioP2
4428;SDS011;2227;47.810;8.810;2023-04-08T04:35:17;770.25;;;688.15;;
4428;SDS011;2227;47.810;8.810;2023-04-08T04:37:44;779.08;;;696.72;;
4428;SDS011;2227;47.810;8.810;2023-04-08T04:40:12;774.38;;;692.40;;
4428;SDS011;2227;47.810;8.810;2023-04-08T04:42:39;776.75;;;694.63;;
4428;SDS011;2227;47.810;8.810;2023-04-08T04:45:06;784.88;;;702.35;;
4428;SDS011;2227;47.810;8.810;2023-04-08T04:47:34;776.42;;;694.35;;
4428;SDS011;2227;47.810;8.810;2023-04-08T04:50:01;784.97;;;702.80;;
4428;SDS011;2227;47.810;8.810;2023-04-08T04:52:27;771.72;;;689.83;;
4428;SDS011;2227;47.810;8.810;2023-04-08T04:54:55;777.30;;;695.17;;
4428;SDS011;2227;47.810;8.810;2023-04-08T04:57:22;779.13;;;697.00;;
4428;SDS011;2227;47.810;8.810;2023-04-08T04:59:49;780.47;;;698.17;;
4428;SDS011;2227;47.810;8.810;2023-04-08T05:02:16;784.72;;;702.33;;
4428;SDS011;2227;47.810;8.810;2023-04-08T05:04:43;779.80;;;697.80;;
4428;SDS011;2227;47.810;8.810;2023-04-08T05:07:10;772.72;;;690.92;;
4428;SDS011;2227;47.810;8.810;2023-04-08T05:09:37;775.42;;;693.72;;
4428;SDS011;2227;47.810;8.810;2023-04-08T05:12:03;789.33;;;707.42;;
4428;SDS011;2227;47.810;8.810;2023-04-08T05:14:30;781.90;;;700.13;;
4428;SDS011;2227;47.810;8.810;2023-04-08T05:16:58;781.87;;;699.67;;
4428;SDS011;2227;47.810;8.810;2023-04-08T05:19:25;785.25;;;703.28;;
4428;SDS011;2227;47.810;8.810;2023-04-08T05:21:51;796.83;;;714.63;;
4428;SDS011;2227;47.810;8.810;2023-04-08T05:24:18;781.03;;;699.30;;
4428;SDS011;2227;47.810;8.810;2023-04-08T05:26:45;785.47;;;703.58;;
4428;SDS011;2227;47.810;8.810;2023-04-08T05:29:13;781.75;;;700.15;;
4428;SDS011;2227;47.810;8.810;2023-04-08T05:31:39;791.10;;;709.30;;
4428;SDS011;2227;47.810;8.810;2023-04-08T05:34:06;791.27;;;709.37;;
4428;SDS011;2227;47.810;8.810;2023-04-08T05:36:33;787.83;;;705.83;;
4428;SDS011;2227;47.810;8.810;2023-04-08T05:38:59;783.97;;;702.05;;
4428;SDS011;2227;47.810;8.810;2023-04-08T05:41:28;781.70;;;700.00;;
4428;SDS011;2227;47.810;8.810;2023-04-08T05:43:55;784.90;;;703.30;;
4428;SDS011;2227;47.810;8.810;2023-04-08T05:46:21;784.13;;;702.40;;
4428;SDS011;2227;47.810;8.810;2023-04-08T05:48:48;796.17;;;714.60;;
4428;SDS011;2227;47.810;8.810;2023-04-08T05:51:16;792.90;;;711.53;;
4428;SDS011;2227;47.810;8.810;2023-04-08T05:53:45;786.70;;;705.55;;
4428;SDS011;2227;47.810;8.810;2023-04-08T05:56:12;789.92;;;708.42;;
4428;SDS011;2227;47.810;8.810;2023-04-08T05:58:39;801.17;;;719.70;;
4428;SDS011;2227;47.810;8.810;2023-04-08T06:01:06;796.13;;;714.97;;
4428;SDS011;2227;47.810;8.810;2023-04-08T06:03:32;800.95;;;719.55;;
4428;SDS011;2227;47.810;8.810;2023-04-08T06:05:59;801.40;;;720.23;;
4428;SDS011;2227;47.810;8.810;2023-04-08T06:08:28;804.37;;;722.87;;
4428;SDS011;2227;47.810;8.810;2023-04-08T06:10:55;807.95;;;726.38;;
4428;SDS011;2227;47.810;8.810;2023-04-08T06:13:21;809.28;;;727.78;;
4428;SDS011;2227;47.810;8.810;2023-04-08T06:15:50;813.63;;;731.78;;
4428;SDS011;2227;47.810;8.810;2023-04-08T06:18:17;811.40;;;729.92;;
4428;SDS011;2227;47.810;8.810;2023-04-08T06:20:44;811.70;;;730.40;;
4428;SDS011;2227;47.810;8.810;2023-04-08T06:23:12;822.90;;;741.58;;
4428;SDS011;2227;47.810;8.810;2023-04-08T06:25:39;825.63;;;744.13;;
4428;SDS011;2227;47.810;8.810;2023-04-08T06:28:05;817.80;;;736.33;;
4428;SDS011;2227;47.810;8.810;2023-04-08T06:30:32;823.28;;;741.83;;
4428;SDS011;2227;47.810;8.810;2023-04-08T06:32:59;824.25;;;742.83;;
4428;SDS011;2227;47.810;8.810;2023-04-08T06:35:25;813.78;;;732.65;;
4428;SDS011;2227;47.810;8.810;2023-04-08T06:37:53;819.83;;;738.73;;
4428;SDS011;2227;47.810;8.810;2023-04-08T06:40:20;832.53;;;751.10;;
4428;SDS011;2227;47.810;8.810;2023-04-08T06:42:46;826.85;;;745.25;;
4428;SDS011;2227;47.810;8.810;2023-04-08T06:45:13;822.53;;;741.35;;
4428;SDS011;2227;47.810;8.810;2023-04-08T06:47:40;827.22;;;746.13;;
4428;SDS011;2227;47.810;8.810;2023-04-08T06:50:07;851.20;;;769.50;;
4428;SDS011;2227;47.810;8.810;2023-04-08T06:52:34;850.93;;;769.07;;
4428;SDS011;2227;47.810;8.810;2023-04-08T06:55:00;860.72;;;778.53;;
4428;SDS011;2227;47.810;8.810;2023-04-08T06:57:27;858.60;;;775.40;;
4428;SDS011;2227;47.810;8.810;2023-04-08T06:59:54;858.90;;;776.28;;
4428;SDS011;2227;47.810;8.810;2023-04-08T07:02:21;863.65;;;781.35;;
4428;SDS011;2227;47.810;8.810;2023-04-08T07:04:48;857.10;;;774.50;;
4428;SDS011;2227;47.810;8.810;2023-04-08T07:07:15;863.05;;;780.85;;
4428;SDS011;2227;47.810;8.810;2023-04-08T07:09:42;864.78;;;783.08;;
4428;SDS011;2227;47.810;8.810;2023-04-08T07:12:11;860.57;;;778.87;;
4428;SDS011;2227;47.810;8.810;2023-04-08T07:14:38;864.95;;;783.55;;
4428;SDS011;2227;47.810;8.810;2023-04-08T07:17:04;863.22;;;781.85;;
4428;SDS011;2227;47.810;8.810;2023-04-08T07:19:31;864.20;;;782.58;;
4428;SDS011;2227;47.810;8.810;2023-04-08T07:21:58;875.20;;;793.00;;
4428;SDS011;2227;47.810;8.810;2023-04-08T07:24:25;877.95;;;794.65;;
4428;SDS011;2227;47.810;8.810;2023-04-08T07:26:52;881.70;;;798.90;;
4428;SDS011;2227;47.810;8.810;2023-04-08T07:29:21;883.67;;;801.22;;
4428;SDS011;2227;47.810;8.810;2023-04-08T07:31:48;889.35;;;807.05;;
4428;SDS011;2227;47.810;8.810;2023-04-08T07:34:14;896.28;;;813.90;;
4428;SDS011;2227;47.810;8.810;2023-04-08T07:36:41;893.67;;;811.38;;
4428;SDS011;2227;47.810;8.810;2023-04-08T07:39:08;906.58;;;824.08;;
4428;SDS011;2227;47.810;8.810;2023-04-08T07:41:35;906.75;;;824.22;;
4428;SDS011;2227;47.810;8.810;2023-04-08T07:44:01;914.00;;;831.30;;
4428;SDS011;2227;47.810;8.810;2023-04-08T07:46:28;910.65;;;828.08;;
4428;SDS011;2227;47.810;8.810;2023-04-08T07:48:55;911.03;;;828.72;;
4428;SDS011;2227;47.810;8.810;2023-04-08T07:51:22;915.30;;;833.25;;
4428;SDS011;2227;47.810;8.810;2023-04-08T07:53:49;918.85;;;836.72;;
4428;SDS011;2227;47.810;8.810;2023-04-08T07:56:16;916.15;;;833.75;;
4428;SDS011;2227;47.810;8.810;2023-04-08T07:58:44;925.20;;;842.23;;
4428;SDS011;2227;47.810;8.810;2023-04-08T08:01:18;901.55;;;819.33;;
4428;SDS011;2227;47.810;8.810;2023-04-08T08:03:47;905.50;;;823.33;;
4428;SDS011;2227;47.810;8.810;2023-04-08T08:06:15;897.80;;;815.85;;
4428;SDS011;2227;47.810;8.810;2023-04-08T08:08:42;914.13;;;831.83;;
4428;SDS011;2227;47.810;8.810;2023-04-08T08:11:08;915.15;;;832.97;;
4428;SDS011;2227;47.810;8.810;2023-04-08T08:13:35;913.35;;;830.85;;
4428;SDS011;2227;47.810;8.810;2023-04-08T08:16:02;902.85;;;820.65;;
4428;SDS011;2227;47.810;8.810;2023-04-08T08:18:29;911.03;;;828.42;;
4428;SDS011;2227;47.810;8.810;2023-04-08T08:20:56;907.45;;;825.13;;
4428;SDS011;2227;47.810;8.810;2023-04-08T08:23:22;912.90;;;830.50;;
4428;SDS011;2227;47.810;8.810;2023-04-08T08:25:53;918.30;;;836.28;;
4428;SDS011;2227;47.810;8.810;2023-04-08T08:28:24;919.17;;;837.55;;
4428;SDS011;2227;47.810;8.810;2023-04-08T08:30:52;919.05;;;837.05;;
4428;SDS011;2227;47.810;8.810;2023-04-08T08:33:19;923.75;;;841.88;;
4428;SDS011;2227;47.810;8.810;2023-04-08T08:35:46;923.42;;;841.45;;
4428;SDS011;2227;47.810;8.810;2023-04-08T08:38:12;950.78;;;867.28;;
4428;SDS011;2227;47.810;8.810;2023-04-08T08:40:39;959.13;;;874.17;;
4428;SDS011;2227;47.810;8.810;2023-04-08T08:43:06;987.78;;;903.97;;
4428;SDS011;2227;47.810;8.810;2023-04-08T08:45:37;1027.40;;;942.70;;
4428;SDS011;2227;47.810;8.810;2023-04-08T08:48:06;1032.50;;;948.47;;
4428;SDS011;2227;47.810;8.810;2023-04-08T08:50:34;1044.77;;;960.57;;
4428;SDS011;2227;47.810;8.810;2023-04-08T08:53:01;1049.15;;;964.85;;
4428;SDS011;2227;47.810;8.810;2023-04-08T08:55:31;1043.27;;;959.17;;
4428;SDS011;2227;47.810;8.810;2023-04-08T08:58:18;1031.55;;;948.00;;
4428;SDS011;2227;47.810;8.810;2023-04-08T09:00:45;1016.38;;;933.15;;
4428;SDS011;2227;47.810;8.810;2023-04-08T09:03:46;1012.13;;;929.30;;
4428;SDS011;2227;47.810;8.810;2023-04-08T09:06:05;1018.78;;;935.17;;
4428;SDS011;2227;47.810;8.810;2023-04-08T09:11:10;1000.70;;;917.45;;
4428;SDS011;2227;47.810;8.810;2023-04-08T09:13:37;995.70;;;912.58;;
4428;SDS011;2227;47.810;8.810;2023-04-08T09:16:07;992.90;;;910.15;;
4428;SDS011;2227;47.810;8.810;2023-04-08T09:18:36;994.10;;;910.83;;
4428;SDS011;2227;47.810;8.810;2023-04-08T09:21:04;993.47;;;909.95;;
4428;SDS011;2227;47.810;8.810;2023-04-08T09:23:39;984.15;;;900.85;;
4428;SDS011;2227;47.810;8.810;2023-04-08T09:26:17;994.42;;;910.63;;
4428;SDS011;2227;47.810;8.810;2023-04-08T09:29:03;991.60;;;907.67;;
4428;SDS011;2227;47.810;8.810;2023-04-08T09:31:57;978.77;;;895.23;;
4428;SDS011;2227;47.810;8.810;2023-04-08T09:34:26;987.38;;;903.63;;
4428;SDS011;2227;47.810;8.810;2023-04-08T09:36:54;987.67;;;903.88;;
4428;SDS011;2227;47.810;8.810;2023-04-08T09:39:21;984.00;;;900.25;;
4428;SDS011;2227;47.810;8.810;2023-04-08T09:41:49;982.47;;;898.78;;
4428;SDS011;2227;47.810;8.810;2023-04-08T09:44:17;984.03;;;900.72;;
4428;SDS011;2227;47.810;8.810;2023-04-08T09:46:50;979.72;;;896.72;;
4428;SDS011;2227;47.810;8.810;2023-04-08T09:49:33;976.58;;;893.85;;
4428;SDS011;2227;47.810;8.810;2023-04-08T09:52:14;987.13;;;904.10;;
4428;SDS011;2227;47.810;8.810;2023-04-08T09:55:01;990.30;;;907.10;;
4428;SDS011;2227;47.810;8.810;2023-04-08T10:00:14;989.00;;;906.10;;
4428;SDS011;2227;47.810;8.810;2023-04-08T10:05:26;989.90;;;906.63;;
4428;SDS011;2227;47.810;8.810;2023-04-08T10:07:54;987.95;;;904.80;;
4428;SDS011;2227;47.810;8.810;2023-04-08T10:10:22;987.00;;;904.08;;
4428;SDS011;2227;47.810;8.810;2023-04-08T10:12:49;985.53;;;902.65;;
4428;SDS011;2227;47.810;8.810;2023-04-08T10:17:54;981.88;;;899.47;;
4428;SDS011;2227;47.810;8.810;2023-04-08T10:20:45;983.13;;;900.88;;
4428;SDS011;2227;47.810;8.810;2023-04-08T10:23:14;986.40;;;904.03;;
4428;SDS011;2227;47.810;8.810;2023-04-08T10:25:46;995.85;;;913.15;;
4428;SDS011;2227;47.810;8.810;2023-04-08T10:30:43;990.77;;;908.27;;
4428;SDS011;2227;47.810;8.810;2023-04-08T10:35:54;987.67;;;905.47;;
4428;SDS011;2227;47.810;8.810;2023-04-08T10:38:37;988.33;;;906.08;;
4428;SDS011;2227;47.810;8.810;2023-04-08T10:41:05;983.65;;;901.53;;
4428;SDS011;2227;47.810;8.810;2023-04-08T10:43:32;983.95;;;901.90;;
4428;SDS011;2227;47.810;8.810;2023-04-08T10:45:59;987.88;;;905.67;;
4428;SDS011;2227;47.810;8.810;2023-04-08T10:48:27;985.92;;;903.78;;
4428;SDS011;2227;47.810;8.810;2023-04-08T10:53:31;986.40;;;903.80;;
4428;SDS011;2227;47.810;8.810;2023-04-08T10:56:05;987.67;;;904.80;;
4428;SDS011;2227;47.810;8.810;2023-04-08T10:58:33;976.83;;;894.40;;
4428;SDS011;2227;47.810;8.810;2023-04-08T11:01:04;973.35;;;890.75;;
4428;SDS011;2227;47.810;8.810;2023-04-08T11:03:32;969.63;;;887.53;;
4428;SDS011;2227;47.810;8.810;2023-04-08T11:06:01;966.28;;;884.28;;
4428;SDS011;2227;47.810;8.810;2023-04-08T11:08:29;960.55;;;878.78;;
4428;SDS011;2227;47.810;8.810;2023-04-08T11:11:00;972.63;;;890.45;;
4428;SDS011;2227;47.810;8.810;2023-04-08T11:13:28;967.38;;;885.30;;
4428;SDS011;2227;47.810;8.810;2023-04-08T11:15:55;975.75;;;893.38;;
4428;SDS011;2227;47.810;8.810;2023-04-08T11:18:24;964.90;;;883.20;;
4428;SDS011;2227;47.810;8.810;2023-04-08T11:20:52;972.22;;;890.53;;
4428;SDS011;2227;47.810;8.810;2023-04-08T11:23:19;977.47;;;895.47;;
4428;SDS011;2227;47.810;8.810;2023-04-08T11:25:48;969.30;;;887.58;;
4428;SDS011;2227;47.810;8.810;2023-04-08T11:28:15;978.10;;;896.08;;
4428;SDS011;2227;47.810;8.810;2023-04-08T11:30:43;977.05;;;895.35;;
4428;SDS011;2227;47.810;8.810;2023-04-08T11:33:11;983.47;;;901.57;;
4428;SDS011;2227;47.810;8.810;2023-04-08T11:35:39;986.65;;;904.95;;
4428;SDS011;2227;47.810;8.810;2023-04-08T11:38:09;996.15;;;914.17;;
4428;SDS011;2227;47.810;8.810;2023-04-08T11:40:37;1007.17;;;924.88;;
4428;SDS011;2227;47.810;8.810;2023-04-08T11:43:11;1010.65;;;928.35;;
4428;SDS011;2227;47.810;8.810;2023-04-08T11:45:40;1026.73;;;944.43;;
4428;SDS011;2227;47.810;8.810;2023-04-08T11:48:11;1035.32;;;952.92;;
4428;SDS011;2227;47.810;8.810;2023-04-08T11:50:39;1048.10;;;965.63;;
4428;SDS011;2227;47.810;8.810;2023-04-08T11:55:43;1045.18;;;962.97;;
4428;SDS011;2227;47.810;8.810;2023-04-08T11:58:10;1052.97;;;970.78;;
4428;SDS011;2227;47.810;8.810;2023-04-08T12:00:37;1060.53;;;978.33;;
4428;SDS011;2227;47.810;8.810;2023-04-08T12:03:04;1062.85;;;980.75;;
4428;SDS011;2227;47.810;8.810;2023-04-08T12:05:32;1062.18;;;979.97;;
4428;SDS011;2227;47.810;8.810;2023-04-08T12:07:59;1061.30;;;979.50;;
4428;SDS011;2227;47.810;8.810;2023-04-08T12:10:26;1059.18;;;977.65;;
4428;SDS011;2227;47.810;8.810;2023-04-08T12:12:53;1061.97;;;980.28;;
4428;SDS011;2227;47.810;8.810;2023-04-08T12:15:19;1059.35;;;977.35;;
4428;SDS011;2227;47.810;8.810;2023-04-08T12:17:46;1041.30;;;959.78;;
4428;SDS011;2227;47.810;8.810;2023-04-08T12:20:14;1033.55;;;951.17;;
4428;SDS011;2227;47.810;8.810;2023-04-08T12:22:42;1027.50;;;945.90;;
4428;SDS011;2227;47.810;8.810;2023-04-08T12:25:09;1030.40;;;948.63;;
4428;SDS011;2227;47.810;8.810;2023-04-08T12:27:36;1024.50;;;942.58;;
4428;SDS011;2227;47.810;8.810;2023-04-08T12:30:02;1030.45;;;948.17;;
4428;SDS011;2227;47.810;8.810;2023-04-08T12:32:29;1015.60;;;933.88;;
4428;SDS011;2227;47.810;8.810;2023-04-08T12:34:56;1019.87;;;938.07;;
4428;SDS011;2227;47.810;8.810;2023-04-08T12:37:23;1011.20;;;929.53;;
4428;SDS011;2227;47.810;8.810;2023-04-08T12:39:50;1011.83;;;929.97;;
4428;SDS011;2227;47.810;8.810;2023-04-08T12:42:17;1004.20;;;922.40;;
4428;SDS011;2227;47.810;8.810;2023-04-08T12:44:44;1003.78;;;921.88;;
4428;SDS011;2227;47.810;8.810;2023-04-08T12:47:10;1003.55;;;921.75;;
4428;SDS011;2227;47.810;8.810;2023-04-08T12:49:37;1010.33;;;928.13;;
4428;SDS011;2227;47.810;8.810;2023-04-08T12:52:07;1000.90;;;918.90;;
4428;SDS011;2227;47.810;8.810;2023-04-08T12:54:33;994.25;;;912.55;;
4428;SDS011;2227;47.810;8.810;2023-04-08T12:57:00;1000.88;;;918.58;;
4428;SDS011;2227;47.810;8.810;2023-04-08T12:59:28;997.03;;;914.88;;
4428;SDS011;2227;47.810;8.810;2023-04-08T13:01:54;988.92;;;906.92;;
4428;SDS011;2227;47.810;8.810;2023-04-08T13:04:21;993.70;;;911.80;;
4428;SDS011;2227;47.810;8.810;2023-04-08T13:06:48;991.25;;;909.65;;
4428;SDS011;2227;47.810;8.810;2023-04-08T13:09:14;987.63;;;905.92;;
4428;SDS011;2227;47.810;8.810;2023-04-08T13:11:41;988.63;;;907.08;;
4428;SDS011;2227;47.810;8.810;2023-04-08T13:14:08;985.60;;;904.22;;
4428;SDS011;2227;47.810;8.810;2023-04-08T13:16:34;995.15;;;913.53;;
4428;SDS011;2227;47.810;8.810;2023-04-08T13:19:02;992.10;;;910.35;;
4428;SDS011;2227;47.810;8.810;2023-04-08T13:21:29;987.17;;;906.08;;
4428;SDS011;2227;47.810;8.810;2023-04-08T13:23:56;986.45;;;905.00;;
4428;SDS011;2227;47.810;8.810;2023-04-08T13:26:23;988.33;;;907.03;;
4428;SDS011;2227;47.810;8.810;2023-04-08T13:28:49;983.47;;;902.00;;
4428;SDS011;2227;47.810;8.810;2023-04-08T13:31:23;989.10;;;907.50;;
4428;SDS011;2227;47.810;8.810;2023-04-08T13:33:50;975.20;;;893.70;;
4428;SDS011;2227;47.810;8.810;2023-04-08T13:36:19;983.70;;;902.13;;
4428;SDS011;2227;47.810;8.810;2023-04-08T13:38:46;983.60;;;902.10;;
4428;SDS011;2227;47.810;8.810;2023-04-08T13:41:13;988.17;;;906.38;;
4428;SDS011;2227;47.810;8.810;2023-04-08T13:43:39;986.67;;;904.85;;
4428;SDS011;2227;47.810;8.810;2023-04-08T13:46:06;987.07;;;905.30;;
4428;SDS011;2227;47.810;8.810;2023-04-08T13:48:33;980.75;;;899.45;;
4428;SDS011;2227;47.810;8.810;2023-04-08T13:51:00;981.75;;;900.28;;
4428;SDS011;2227;47.810;8.810;2023-04-08T13:53:27;978.95;;;897.60;;
4428;SDS011;2227;47.810;8.810;2023-04-08T13:55:54;976.90;;;895.70;;
4428;SDS011;2227;47.810;8.810;2023-04-08T13:58:21;987.50;;;905.80;;
4428;SDS011;2227;47.810;8.810;2023-04-08T14:00:49;981.95;;;900.25;;
4428;SDS011;2227;47.810;8.810;2023-04-08T14:03:17;984.03;;;902.45;;
4428;SDS011;2227;47.810;8.810;2023-04-08T14:05:44;977.70;;;896.60;;
4428;SDS011;2227;47.810;8.810;2023-04-08T14:08:11;980.60;;;899.58;;
4428;SDS011;2227;47.810;8.810;2023-04-08T14:10:38;982.70;;;901.63;;
4428;SDS011;2227;47.810;8.810;2023-04-08T14:13:07;985.30;;;904.25;;
4428;SDS011;2227;47.810;8.810;2023-04-08T14:15:34;985.50;;;904.42;;
4428;SDS011;2227;47.810;8.810;2023-04-08T14:18:00;982.45;;;901.85;;
4428;SDS011;2227;47.810;8.810;2023-04-08T14:20:27;988.40;;;907.60;;
4428;SDS011;2227;47.810;8.810;2023-04-08T14:22:54;987.10;;;906.33;;
4428;SDS011;2227;47.810;8.810;2023-04-08T14:25:22;986.30;;;905.72;;
4428;SDS011;2227;47.810;8.810;2023-04-08T14:27:48;992.13;;;911.60;;
4428;SDS011;2227;47.810;8.810;2023-04-08T14:30:24;993.38;;;912.78;;
4428;SDS011;2227;47.810;8.810;2023-04-08T14:32:52;1000.67;;;918.95;;
4428;SDS011;2227;47.810;8.810;2023-04-08T14:35:19;993.00;;;912.20;;
4428;SDS011;2227;47.810;8.810;2023-04-08T14:37:46;996.50;;;915.65;;
4428;SDS011;2227;47.810;8.810;2023-04-08T14:40:13;1001.47;;;920.70;;
4428;SDS011;2227;47.810;8.810;2023-04-08T14:42:39;997.47;;;916.45;;
4428;SDS011;2227;47.810;8.810;2023-04-08T14:45:06;1006.00;;;925.03;;
4428;SDS011;2227;47.810;8.810;2023-04-08T14:47:33;1003.33;;;922.63;;
4428;SDS011;2227;47.810;8.810;2023-04-08T14:50:00;1001.85;;;921.63;;
4428;SDS011;2227;47.810;8.810;2023-04-08T14:52:27;1000.10;;;919.70;;
4428;SDS011;2227;47.810;8.810;2023-04-08T14:54:54;1002.65;;;921.97;;
4428;SDS011;2227;47.810;8.810;2023-04-08T14:57:20;1000.25;;;920.03;;
4428;SDS011;2227;47.810;8.810;2023-04-08T14:59:47;1011.63;;;930.63;;
4428;SDS011;2227;47.810;8.810;2023-04-08T15:02:14;1005.50;;;924.70;;
4428;SDS011;2227;47.810;8.810;2023-04-08T15:04:41;1004.08;;;923.17;;
4428;SDS011;2227;47.810;8.810;2023-04-08T15:07:08;1013.90;;;932.60;;
4428;SDS011;2227;47.810;8.810;2023-04-08T15:09:34;1015.85;;;934.58;;
4428;SDS011;2227;47.810;8.810;2023-04-08T15:12:01;1004.90;;;924.50;;
4428;SDS011;2227;47.810;8.810;2023-04-08T15:14:28;1003.40;;;923.07;;
4428;SDS011;2227;47.810;8.810;2023-04-08T15:16:54;1003.28;;;922.90;;
4428;SDS011;2227;47.810;8.810;2023-04-08T15:19:21;1006.33;;;925.97;;
4428;SDS011;2227;47.810;8.810;2023-04-08T15:21:48;1000.17;;;919.85;;
4428;SDS011;2227;47.810;8.810;2023-04-08T15:24:15;996.50;;;916.42;;
4428;SDS011;2227;47.810;8.810;2023-04-08T15:26:42;1003.00;;;922.38;;
4428;SDS011;2227;47.810;8.810;2023-04-08T15:29:08;1002.63;;;921.80;;
4428;SDS011;2227;47.810;8.810;2023-04-08T15:31:35;997.88;;;917.78;;
4428;SDS011;2227;47.810;8.810;2023-04-08T15:34:02;997.63;;;917.33;;
4428;SDS011;2227;47.810;8.810;2023-04-08T15:36:28;995.90;;;915.72;;
4428;SDS011;2227;47.810;8.810;2023-04-08T15:38:55;992.92;;;912.72;;
4428;SDS011;2227;47.810;8.810;2023-04-08T15:41:22;987.85;;;908.20;;
4428;SDS011;2227;47.810;8.810;2023-04-08T15:43:49;991.10;;;910.90;;
4428;SDS011;2227;47.810;8.810;2023-04-08T15:46:17;1001.03;;;920.72;;
4428;SDS011;2227;47.810;8.810;2023-04-08T15:48:47;988.63;;;908.53;;
4428;SDS011;2227;47.810;8.810;2023-04-08T15:51:14;993.95;;;913.65;;
4428;SDS011;2227;47.810;8.810;2023-04-08T15:53:41;995.25;;;914.85;;
4428;SDS011;2227;47.810;8.810;2023-04-08T15:56:12;993.92;;;913.42;;
4428;SDS011;2227;47.810;8.810;2023-04-08T15:58:43;994.60;;;913.80;;
4428;SDS011;2227;47.810;8.810;2023-04-08T16:01:11;995.97;;;915.03;;
4428;SDS011;2227;47.810;8.810;2023-04-08T16:03:38;981.13;;;900.42;;
4428;SDS011;2227;47.810;8.810;2023-04-08T16:06:06;981.25;;;900.65;;
4428;SDS011;2227;47.810;8.810;2023-04-08T16:08:33;977.85;;;897.47;;
4428;SDS011;2227;47.810;8.810;2023-04-08T16:11:00;981.05;;;900.47;;
4428;SDS011;2227;47.810;8.810;2023-04-08T16:13:28;981.13;;;900.70;;
4428;SDS011;2227;47.810;8.810;2023-04-08T16:15:56;983.60;;;902.87;;
4428;SDS011;2227;47.810;8.810;2023-04-08T16:18:23;982.08;;;901.35;;
4428;SDS011;2227;47.810;8.810;2023-04-08T16:20:51;979.20;;;898.53;;
4428;SDS011;2227;47.810;8.810;2023-04-08T16:23:18;975.20;;;894.13;;
4428;SDS011;2227;47.810;8.810;2023-04-08T16:25:45;984.78;;;902.97;;
4428;SDS011;2227;47.810;8.810;2023-04-08T16:28:12;973.20;;;891.50;;
4428;SDS011;2227;47.810;8.810;2023-04-08T16:30:39;977.08;;;895.78;;
4428;SDS011;2227;47.810;8.810;2023-04-08T16:33:09;974.25;;;892.88;;
4428;SDS011;2227;47.810;8.810;2023-04-08T16:35:38;960.75;;;879.67;;
4428;SDS011;2227;47.810;8.810;2023-04-08T16:38:05;957.67;;;876.55;;
4428;SDS011;2227;47.810;8.810;2023-04-08T16:40:32;966.07;;;884.40;;
4428;SDS011;2227;47.810;8.810;2023-04-08T16:45:28;960.25;;;878.20;;
4428;SDS011;2227;47.810;8.810;2023-04-08T16:47:56;953.93;;;872.07;;
4428;SDS011;2227;47.810;8.810;2023-04-08T16:50:23;951.90;;;869.70;;
4428;SDS011;2227;47.810;8.810;2023-04-08T16:52:50;943.80;;;862.50;;
4428;SDS011;2227;47.810;8.810;2023-04-08T16:55:17;949.63;;;868.10;;
4428;SDS011;2227;47.810;8.810;2023-04-08T16:57:44;942.83;;;862.65;;
4428;SDS011;2227;47.810;8.810;2023-04-08T17:00:11;927.92;;;848.28;;
4428;SDS011;2227;47.810;8.810;2023-04-08T17:02:38;938.42;;;857.58;;
4428;SDS011;2227;47.810;8.810;2023-04-08T17:05:06;924.88;;;845.03;;
4428;SDS011;2227;47.810;8.810;2023-04-08T17:07:33;923.70;;;843.92;;
4428;SDS011;2227;47.810;8.810;2023-04-08T17:10:00;930.53;;;850.60;;
4428;SDS011;2227;47.810;8.810;2023-04-08T17:12:26;925.30;;;845.47;;
4428;SDS011;2227;47.810;8.810;2023-04-08T17:14:53;923.20;;;843.40;;
4428;SDS011;2227;47.810;8.810;2023-04-08T17:17:20;919.22;;;839.50;;
4428;SDS011;2227;47.810;8.810;2023-04-08T17:19:47;921.25;;;841.45;;
4428;SDS011;2227;47.810;8.810;2023-04-08T17:22:14;922.03;;;842.33;;
4428;SDS011;2227;47.810;8.810;2023-04-08T17:24:41;925.00;;;845.22;;
4428;SDS011;2227;47.810;8.810;2023-04-08T17:27:12;918.22;;;838.60;;
4428;SDS011;2227;47.810;8.810;2023-04-08T17:29:39;920.30;;;840.45;;
4428;SDS011;2227;47.810;8.810;2023-04-08T17:32:06;916.47;;;836.78;;
4428;SDS011;2227;47.810;8.810;2023-04-08T17:34:33;918.90;;;839.47;;
4428;SDS011;2227;47.810;8.810;2023-04-08T17:37:00;918.03;;;838.30;;
4428;SDS011;2227;47.810;8.810;2023-04-08T17:39:27;920.85;;;841.05;;
4428;SDS011;2227;47.810;8.810;2023-04-08T17:41:55;914.85;;;835.33;;
4428;SDS011;2227;47.810;8.810;2023-04-08T17:44:22;908.40;;;828.70;;
4428;SDS011;2227;47.810;8.810;2023-04-08T17:46:54;916.53;;;836.88;;
4428;SDS011;2227;47.810;8.810;2023-04-08T17:49:21;911.85;;;832.35;;
4428;SDS011;2227;47.810;8.810;2023-04-08T17:51:48;906.08;;;826.85;;
4428;SDS011;2227;47.810;8.810;2023-04-08T17:54:16;915.87;;;836.40;;
4428;SDS011;2227;47.810;8.810;2023-04-08T17:56:43;916.92;;;837.15;;
4428;SDS011;2227;47.810;8.810;2023-04-08T17:59:11;908.08;;;828.65;;
4428;SDS011;2227;47.810;8.810;2023-04-08T18:01:38;916.17;;;836.28;;
4428;SDS011;2227;47.810;8.810;2023-04-08T18:04:05;904.10;;;824.53;;
4428;SDS011;2227;47.810;8.810;2023-04-08T18:06:33;916.47;;;835.70;;
4428;SDS011;2227;47.810;8.810;2023-04-08T18:09:00;909.13;;;829.25;;
4428;SDS011;2227;47.810;8.810;2023-04-08T18:11:30;914.30;;;834.25;;
4428;SDS011;2227;47.810;8.810;2023-04-08T18:13:57;906.90;;;827.25;;
4428;SDS011;2227;47.810;8.810;2023-04-08T18:16:24;911.08;;;831.10;;
4428;SDS011;2227;47.810;8.810;2023-04-08T18:18:51;903.75;;;824.03;;
4428;SDS011;2227;47.810;8.810;2023-04-08T18:21:17;909.67;;;829.80;;
4428;SDS011;2227;47.810;8.810;2023-04-08T18:23:44;901.75;;;821.65;;
4428;SDS011;2227;47.810;8.810;2023-04-08T18:26:14;899.20;;;818.38;;
4428;SDS011;2227;47.810;8.810;2023-04-08T18:28:41;902.50;;;821.55;;
4428;SDS011;2227;47.810;8.810;2023-04-08T18:31:08;894.40;;;813.60;;
4428;SDS011;2227;47.810;8.810;2023-04-08T18:33:35;890.65;;;809.35;;
4428;SDS011;2227;47.810;8.810;2023-04-08T18:36:07;887.47;;;806.60;;
4428;SDS011;2227;47.810;8.810;2023-04-08T18:38:35;893.20;;;812.20;;
4428;SDS011;2227;47.810;8.810;2023-04-08T18:41:02;895.28;;;814.47;;
4428;SDS011;2227;47.810;8.810;2023-04-08T18:43:29;892.95;;;811.95;;
4428;SDS011;2227;47.810;8.810;2023-04-08T18:45:56;892.38;;;811.05;;
4428;SDS011;2227;47.810;8.810;2023-04-08T18:48:24;890.72;;;809.50;;
4428;SDS011;2227;47.810;8.810;2023-04-08T18:50:50;899.88;;;818.72;;
4428;SDS011;2227;47.810;8.810;2023-04-08T18:53:17;891.03;;;809.83;;
4428;SDS011;2227;47.810;8.810;2023-04-08T18:55:44;898.63;;;817.30;;
4428;SDS011;2227;47.810;8.810;2023-04-08T18:58:11;894.25;;;812.92;;
4428;SDS011;2227;47.810;8.810;2023-04-08T19:00:38;898.22;;;816.67;;
4428;SDS011;2227;47.810;8.810;2023-04-08T19:03:06;894.80;;;813.70;;
4428;SDS011;2227;47.810;8.810;2023-04-08T19:05:35;890.10;;;809.13;;
4428;SDS011;2227;47.810;8.810;2023-04-08T19:08:02;892.40;;;811.30;;
4428;SDS011;2227;47.810;8.810;2023-04-08T19:10:30;885.25;;;804.35;;
4428;SDS011;2227;47.810;8.810;2023-04-08T19:12:58;887.85;;;806.95;;
4428;SDS011;2227;47.810;8.810;2023-04-08T19:15:25;886.42;;;805.38;;
4428;SDS011;2227;47.810;8.810;2023-04-08T19:17:52;880.40;;;799.60;;
4428;SDS011;2227;47.810;8.810;2023-04-08T19:20:19;888.80;;;807.78;;